DLH8MC EDDB-EDDM
Flight info
| Callsign | DLH8MC |
|---|---|
| Flight time | N/A |
| Altitude | 28000 |
| Route | LUROS3B LUROS Y211 BEBKU Z36 MAREM DCT VESUB T106 TUSTO T108 LANDU LANDU2A |
| Aircraft | A321/M-SDE2E3FGIJ1LORWXYZ/HB1 |
Departure
| Time | 2026-04-30 20:33 |
|---|---|
| Airport | Berlin Brandenburg Airport (EDDB) |
Arrival
| Time | N/A |
|---|---|
| Airport | Munich Airport (EDDM) |
| Time | Latitude | Longitude | Altitude | Speed | Heading |
|---|---|---|---|---|---|
| 2026-04-30 20:00 | 52.36615 | 13.50451 | 155 ft | 0 kts | 69° |
| 2026-04-30 20:23 | 52.36612 | 13.50441 | 155 ft | 4 kts | 69° |
| 2026-04-30 20:23 | 52.36603 | 13.50399 | 154 ft | 4 kts | 69° |
| 2026-04-30 20:23 | 52.36593 | 13.50358 | 154 ft | 4 kts | 68° |
| 2026-04-30 20:24 | 52.36583 | 13.50318 | 153 ft | 2 kts | 68° |
| 2026-04-30 20:24 | 52.36575 | 13.50289 | 152 ft | 4 kts | 55° |
| 2026-04-30 20:24 | 52.36558 | 13.50262 | 151 ft | 4 kts | 17° |
| 2026-04-30 20:24 | 52.36537 | 13.50260 | 151 ft | 1 kts | 339° |
| 2026-04-30 20:25 | 52.36537 | 13.50261 | 151 ft | 0 kts | 339° |
| 2026-04-30 20:28 | 52.36568 | 13.50241 | 151 ft | 4 kts | 339° |
| 2026-04-30 20:28 | 52.36643 | 13.50194 | 151 ft | 6 kts | 338° |
| 2026-04-30 20:29 | 52.36708 | 13.50135 | 151 ft | 5 kts | 311° |
| 2026-04-30 20:30 | 52.36861 | 13.49982 | 147 ft | 2 kts | 344° |
| 2026-04-30 20:30 | 52.36994 | 13.50074 | 154 ft | 7 kts | 41° |
| 2026-04-30 20:31 | 52.37107 | 13.50231 | 156 ft | 18 kts | 40° |
| 2026-04-30 20:32 | 52.37256 | 13.50558 | 156 ft | 33 kts | 69° |
| 2026-04-30 20:32 | 52.37760 | 13.52669 | 254 ft | 152 kts | 68° |
| 2026-04-30 20:33 | 52.38138 | 13.54259 | 1062 ft | 150 kts | 67° |
| 2026-04-30 20:33 | 52.38960 | 13.57700 | 2068 ft | 183 kts | 66° |
| 2026-04-30 20:33 | 52.39380 | 13.59792 | 2352 ft | 209 kts | 80° |
| 2026-04-30 20:34 | 52.37834 | 13.64329 | 3057 ft | 263 kts | 140° |
| 2026-04-30 20:34 | 52.34758 | 13.67800 | 4814 ft | 272 kts | 146° |
| 2026-04-30 20:35 | 52.33153 | 13.69467 | 5741 ft | 274 kts | 146° |
| 2026-04-30 20:35 | 52.31540 | 13.71150 | 6667 ft | 277 kts | 144° |
| 2026-04-30 20:35 | 52.28297 | 13.74697 | 8301 ft | 284 kts | 141° |
| 2026-04-30 20:36 | 52.26658 | 13.76528 | 9132 ft | 288 kts | 140° |
| 2026-04-30 20:36 | 52.25002 | 13.78394 | 9941 ft | 291 kts | 140° |
| 2026-04-30 20:36 | 52.21560 | 13.82279 | 10967 ft | 320 kts | 140° |
| 2026-04-30 20:37 | 52.19671 | 13.84426 | 11183 ft | 340 kts | 140° |
| 2026-04-30 20:37 | 52.17703 | 13.86658 | 11482 ft | 350 kts | 140° |
| 2026-04-30 20:37 | 52.15695 | 13.88896 | 12273 ft | 351 kts | 140° |
| 2026-04-30 20:37 | 52.13659 | 13.91138 | 13004 ft | 355 kts | 141° |
| 2026-04-30 20:38 | 52.11603 | 13.93396 | 13702 ft | 359 kts | 141° |
| 2026-04-30 20:38 | 52.09527 | 13.95685 | 14387 ft | 362 kts | 140° |
| 2026-04-30 20:38 | 52.07338 | 13.97782 | 14988 ft | 373 kts | 152° |
| 2026-04-30 20:39 | 52.02042 | 13.98335 | 16153 ft | 399 kts | 186° |
| 2026-04-30 20:39 | 51.99293 | 13.97573 | 16744 ft | 403 kts | 186° |
| 2026-04-30 20:39 | 51.96510 | 13.96773 | 17329 ft | 408 kts | 186° |
| 2026-04-30 20:40 | 51.90870 | 13.95158 | 18103 ft | 414 kts | 186° |
| 2026-04-30 20:40 | 51.88064 | 13.94370 | 18346 ft | 416 kts | 185° |
| 2026-04-30 20:40 | 51.85227 | 13.93579 | 18383 ft | 409 kts | 185° |
| 2026-04-30 20:41 | 51.79705 | 13.92058 | 17309 ft | 397 kts | 185° |
| 2026-04-30 20:41 | 51.77002 | 13.91327 | 16768 ft | 392 kts | 185° |
| 2026-04-30 20:41 | 51.74321 | 13.90615 | 16242 ft | 388 kts | 185° |
| 2026-04-30 20:41 | 51.71672 | 13.89923 | 15717 ft | 383 kts | 185° |
| 2026-04-30 20:42 | 51.69054 | 13.89254 | 15207 ft | 379 kts | 185° |
| 2026-04-30 20:42 | 51.66466 | 13.88614 | 14708 ft | 374 kts | 185° |
| 2026-04-30 20:42 | 51.61391 | 13.87410 | 13892 ft | 358 kts | 185° |
| 2026-04-30 20:43 | 51.58979 | 13.86839 | 13755 ft | 343 kts | 185° |
| 2026-04-30 20:43 | 51.56667 | 13.86283 | 13621 ft | 329 kts | 185° |
| 2026-04-30 20:43 | 51.54447 | 13.85741 | 13491 ft | 316 kts | 185° |
| 2026-04-30 20:44 | 51.50231 | 13.84697 | 13055 ft | 300 kts | 185° |
| 2026-04-30 20:44 | 51.48177 | 13.84187 | 12707 ft | 298 kts | 185° |
| 2026-04-30 20:44 | 51.44116 | 13.83185 | 12429 ft | 295 kts | 185° |
| 2026-04-30 20:45 | 51.40475 | 13.80340 | 12072 ft | 298 kts | 223° |
| 2026-04-30 20:45 | 51.38994 | 13.78026 | 11708 ft | 297 kts | 225° |
| 2026-04-30 20:45 | 51.37546 | 13.75689 | 11360 ft | 295 kts | 225° |
| 2026-04-30 20:46 | 51.33254 | 13.68710 | 10370 ft | 291 kts | 225° |
| 2026-04-30 20:46 | 51.31840 | 13.66402 | 10028 ft | 289 kts | 225° |
| 2026-04-30 20:47 | 51.29050 | 13.61835 | 9351 ft | 285 kts | 225° |
| 2026-04-30 20:47 | 51.27674 | 13.59577 | 9025 ft | 282 kts | 225° |
| 2026-04-30 20:48 | 51.24964 | 13.55118 | 8465 ft | 276 kts | 225° |
| 2026-04-30 20:48 | 51.23631 | 13.52913 | 8433 ft | 277 kts | 225° |
| 2026-04-30 20:48 | 51.22299 | 13.50704 | 8173 ft | 275 kts | 225° |
| 2026-04-30 20:48 | 51.20978 | 13.48511 | 7849 ft | 273 kts | 225° |
| 2026-04-30 20:49 | 51.19668 | 13.46334 | 7535 ft | 271 kts | 225° |
| 2026-04-30 20:49 | 51.18384 | 13.44196 | 7228 ft | 269 kts | 225° |
| 2026-04-30 20:49 | 51.17099 | 13.42051 | 6926 ft | 267 kts | 225° |
| 2026-04-30 20:50 | 51.14560 | 13.37786 | 6403 ft | 264 kts | 225° |
| 2026-04-30 20:50 | 51.13302 | 13.35661 | 6146 ft | 263 kts | 225° |
| 2026-04-30 20:50 | 51.12053 | 13.33547 | 5890 ft | 262 kts | 225° |
| 2026-04-30 20:50 | 51.10809 | 13.31439 | 5633 ft | 261 kts | 225° |
| 2026-04-30 20:51 | 51.09572 | 13.29339 | 5380 ft | 260 kts | 225° |
| 2026-04-30 20:51 | 51.06808 | 13.25909 | 5002 ft | 250 kts | 189° |
| 2026-04-30 20:51 | 51.05119 | 13.25983 | 5006 ft | 242 kts | 158° |
| 2026-04-30 20:52 | 51.03695 | 13.27312 | 5024 ft | 237 kts | 138° |
| 2026-04-30 20:52 | 51.02445 | 13.29004 | 5020 ft | 236 kts | 135° |
| 2026-04-30 20:52 | 50.99994 | 13.32474 | 5018 ft | 236 kts | 135° |
| 2026-04-30 20:53 | 50.98761 | 13.34220 | 5020 ft | 239 kts | 135° |
| 2026-04-30 20:53 | 50.97515 | 13.35977 | 5020 ft | 240 kts | 135° |
| 2026-04-30 20:53 | 50.96269 | 13.37734 | 5021 ft | 240 kts | 135° |
| 2026-04-30 20:54 | 50.93822 | 13.41189 | 5032 ft | 225 kts | 133° |